Terminal Aerodrome Forecast
Issued by NWS Raleigh/Durham, NC

Home | Current Version | Previous Version | Text Only | Print | Product List | Glossary On
Versions: 1 2 3 4 5 6 7 8 9 10 11 12 13 14 15 16 17 18 19 20 21 22 23 24 25 26 27 28 29 30 31 32 33 34 35
000
FTUS42 KRAH 031923 AAA
TAFGSO
TAF AMD
KGSO 031923Z 0319/0418 24006KT P6SM VCTS SCT030CB BKN200
      TEMPO 0319/0321 29015G35KT 1SM -TSRA BR SCT020CB BKN035
     FM040000 24005KT P6SM FEW040 SCT250
     FM040300 31005KT P6SM VCSH OVC050
     FM041500 30005KT P6SM SCT060=

USA.gov is the U.S. government's official web portal to all federal, state and local government web resources and services.